| time (UTC) | temp F | wind direction | speed MPH | gust MPH | rain 1hr in | rain 24hr in | rain mn in | humidity % | barometer mb |
| 20260506221635 | 48 | 195 | 2.0 | 3.0 | 0.00 | 0.00 | 0.00 | 87 | 1012.2 |
| 20260506221136 | 48 | 197 | 3.0 | 3.0 | 0.00 | 0.00 | 0.00 | 87 | 1012.2 |
| 20260506220635 | 49 | 213 | 2.0 | 3.0 | 0.00 | 0.00 | 0.00 | 87 | 1012.2 |
| 20260506220136 | 48 | 195 | 3.0 | 4.0 | 0.00 | 0.00 | 0.00 | 87 | 1012.2 |
| 20260506215636 | 48 | 231 | 2.0 | 3.0 | 0.00 | 0.00 | 0.07 | 88 | 1012.1 |
| 20260506215136 | 48 | 190 | 3.0 | 3.0 | 0.00 | 0.00 | 0.07 | 88 | 1012.1 |
| 20260506214639 | 48 | 203 | 2.0 | 3.0 | 0.00 | 0.00 | 0.07 | 88 | 1012.1 |
| 20260506214138 | 48 | 194 | 4.0 | 4.0 | 0.00 | 0.00 | 0.07 | 88 | 1012.0 |
| 20260506213636 | 48 | 196 | 3.0 | 3.0 | 0.00 | 0.00 | 0.07 | 88 | 1012.0 |
| 20260506213134 | 48 | 186 | 3.0 | 3.0 | 0.00 | 0.00 | 0.07 | 88 | 1011.9 |
| 20260506212635 | 48 | 180 | 3.0 | 3.0 | 0.00 | 0.00 | 0.07 | 87 | 1011.9 |
| 20260506212137 | 48 | 184 | 3.0 | 3.0 | 0.00 | 0.00 | 0.07 | 87 | 1011.9 |
| 20260506211637 | 48 | 179 | 3.0 | 3.0 | 0.00 | 0.00 | 0.07 | 87 | 1012.0 |
| 20260506210922 | 48 | 192 | 3.0 | 3.0 | 0.00 | 0.00 | 0.07 | 87 | 1012.0 |
| 20260506210403 | 48 | 181 | 3.0 | 3.0 | 0.00 | 0.00 | 0.07 | 86 | 1012.0 |
| 20260506205903 | 48 | 293 | 2.0 | 2.0 | 0.00 | 0.00 | 0.07 | 86 | 1012.0 |
| 20260506205401 | 49 | 289 | 2.0 | 2.0 | 0.00 | 0.00 | 0.07 | 86 | 1011.9 |
| 20260506204903 | 49 | 213 | 2.0 | 3.0 | 0.00 | 0.00 | 0.07 | 86 | 1011.9 |
| 20260506204403 | 49 | 194 | 3.0 | 3.0 | 0.00 | 0.00 | 0.07 | 85 | 1011.9 |
| 20260506203902 | 49 | 196 | 2.0 | 3.0 | 0.00 | 0.00 | 0.07 | 85 | 1011.9 |
| 20260506203403 | 49 | 195 | 3.0 | 3.0 | 0.00 | 0.00 | 0.07 | 85 | 1011.9 |
| 20260506202902 | 49 | 197 | 3.0 | 4.0 | 0.00 | 0.00 | 0.07 | 85 | 1011.8 |
| 20260506202401 | 49 | 185 | 4.0 | 4.0 | 0.00 | 0.00 | 0.07 | 85 | 1011.8 |
| 20260506201901 | 49 | 199 | 3.0 | 4.0 | 0.00 | 0.00 | 0.07 | 84 | 1011.7 |
| 20260506201404 | 49 | 183 | 3.0 | 4.0 | 0.00 | 0.00 | 0.07 | 84 | 1011.7 |
| 20260506200901 | 49 | 185 | 4.0 | 4.0 | 0.00 | 0.00 | 0.07 | 84 | 1011.7 |
| 20260506200401 | 49 | 184 | 4.0 | 4.0 | 0.00 | 0.00 | 0.07 | 84 | 1011.7 |
| 20260506195903 | 49 | 182 | 4.0 | 4.0 | 0.00 | 0.00 | 0.07 | 84 | 1011.7 |
| 20260506195404 | 50 | 184 | 4.0 | 4.0 | 0.00 | 0.00 | 0.07 | 83 | 1011.6 |
| 20260506194901 | 50 | 188 | 4.0 | 4.0 | 0.00 | 0.00 | 0.07 | 84 | 1011.6 |
| 20260506194403 | 50 | 184 | 4.0 | 4.0 | 0.00 | 0.00 | 0.07 | 83 | 1011.6 |
| 20260506193903 | 50 | 184 | 4.0 | 4.0 | 0.00 | 0.00 | 0.07 | 83 | 1011.5 |
| 20260506193403 | 50 | 182 | 4.0 | 4.0 | 0.00 | 0.00 | 0.07 | 83 | 1011.4 |
| 20260506192901 | 50 | 181 | 4.0 | 4.0 | 0.00 | 0.00 | 0.07 | 83 | 1011.4 |
| 20260506192402 | 50 | 183 | 4.0 | 4.0 | 0.00 | 0.00 | 0.07 | 82 | 1011.4 |
| 20260506191903 | 50 | 174 | 4.0 | 5.0 | 0.00 | 0.00 | 0.07 | 83 | 1011.4 |
| 20260506191401 | 50 | 184 | 4.0 | 4.0 | 0.00 | 0.00 | 0.07 | 83 | 1011.3 |
| 20260506190904 | 50 | 182 | 4.0 | 4.0 | 0.00 | 0.00 | 0.07 | 82 | 1011.3 |
| 20260506190404 | 50 | 176 | 4.0 | 4.0 | 0.00 | 0.00 | 0.07 | 82 | 1011.2 |
| 20260506185902 | 50 | 176 | 4.0 | 4.0 | 0.00 | 0.00 | 0.07 | 82 | 1011.2 |
| 20260506185402 | 50 | 173 | 3.0 | 4.0 | 0.00 | 0.00 | 0.07 | 82 | 1011.1 |
| 20260506184903 | 51 | 179 | 4.0 | 4.0 | 0.00 | 0.00 | 0.07 | 81 | 1011.1 |
| 20260506184401 | 51 | 183 | 3.0 | 4.0 | 0.00 | 0.00 | 0.07 | 81 | 1011.0 |
| 20260506183904 | 51 | 116 | 2.0 | 3.0 | 0.00 | 0.00 | 0.07 | 81 | 1010.9 |
| 20260506183402 | 51 | 189 | 3.0 | 4.0 | 0.00 | 0.00 | 0.07 | 81 | 1010.9 |
| 20260506182902 | 51 | 152 | 4.0 | 4.0 | 0.00 | 0.00 | 0.07 | 81 | 1010.8 |
| 20260506182403 | 51 | 171 | 4.0 | 5.0 | 0.00 | 0.00 | 0.07 | 80 | 1010.8 |
| 20260506181902 | 51 | 201 | 3.0 | 4.0 | 0.00 | 0.00 | 0.07 | 81 | 1010.8 |
| 20260506181401 | 51 | 178 | 4.0 | 4.0 | 0.00 | 0.00 | 0.07 | 81 | 1010.7 |
| 20260506180902 | 51 | 174 | 3.0 | 4.0 | 0.00 | 0.00 | 0.07 | 80 | 1010.6 |
| 20260506180401 | 51 | 145 | 3.0 | 4.0 | 0.00 | 0.00 | 0.07 | 79 | 1010.6 |
| 20260506175903 | 51 | 159 | 3.0 | 4.0 | 0.00 | 0.00 | 0.07 | 78 | 1010.5 |
| 20260506175404 | 51 | 321 | 2.0 | 3.0 | 0.00 | 0.00 | 0.07 | 79 | 1010.5 |
| 20260506174902 | 51 | 162 | 4.0 | 4.0 | 0.00 | 0.00 | 0.07 | 79 | 1010.3 |
| 20260506174402 | 52 | 150 | 4.0 | 5.0 | 0.00 | 0.00 | 0.07 | 77 | 1010.3 |
| 20260506173902 | 52 | 171 | 4.0 | 4.0 | 0.00 | 0.00 | 0.07 | 78 | 1010.2 |
| 20260506173401 | 52 | 137 | 2.0 | 3.0 | 0.00 | 0.00 | 0.07 | 77 | 1010.2 |
| 20260506172901 | 53 | 176 | 3.0 | 4.0 | 0.00 | 0.00 | 0.07 | 78 | 1010.1 |
| 20260506172405 | 52 | 162 | 4.0 | 4.0 | 0.00 | 0.00 | 0.07 | 77 | 1010.1 |
| 20260506171902 | 52 | 93 | 1.0 | 2.0 | 0.00 | 0.00 | 0.07 | 76 | 1010.1 |
| 20260506171401 | 52 | 156 | 3.0 | 4.0 | 0.00 | 0.00 | 0.07 | 78 | 1010.1 |
| 20260506170903 | 52 | 169 | 3.0 | 4.0 | 0.00 | 0.00 | 0.07 | 77 | 1010.1 |
| 20260506170402 | 51 | 146 | 3.0 | 4.0 | 0.00 | 0.00 | 0.07 | 76 | 1010.1 |
| 20260506165902 | 51 | 104 | 3.0 | 4.0 | 0.00 | 0.00 | 0.07 | 76 | 1010.1 |
| 20260506165404 | 51 | 139 | 2.0 | 4.0 | 0.00 | 0.00 | 0.07 | 76 | 1010.1 |
| 20260506164902 | 51 | 190 | 2.0 | 4.0 | 0.00 | 0.00 | 0.07 | 77 | 1010.1 |
| 20260506164401 | 51 | 121 | 3.0 | 4.0 | 0.00 | 0.00 | 0.07 | 76 | 1010.1 |
| 20260506163903 | 51 | 140 | 4.0 | 5.0 | 0.00 | 0.00 | 0.07 | 77 | 1010.1 |
| 20260506163402 | 51 | 95 | 2.0 | 4.0 | 0.00 | 0.00 | 0.07 | 77 | 1010.1 |
| 20260506162905 | 51 | 72 | 2.0 | 3.0 | 0.00 | 0.00 | 0.07 | 78 | 1010.1 |
| 20260506162404 | 51 | 125 | 2.0 | 4.0 | 0.00 | 0.00 | 0.07 | 79 | 1010.1 |
| 20260506161903 | 51 | 149 | 2.0 | 4.0 | 0.00 | 0.00 | 0.07 | 79 | 1010.1 |
| 20260506161403 | 50 | 104 | 5.0 | 9.0 | 0.00 | 0.00 | 0.07 | 79 | 1010.2 |
| 20260506160904 | 50 | 114 | 2.0 | 6.0 | 0.00 | 0.00 | 0.07 | 80 | 1010.2 |
| 20260506160402 | 50 | 71 | 3.0 | 6.0 | 0.00 | 0.00 | 0.07 | 79 | 1010.2 |
| 20260506155902 | 50 | 113 | 2.0 | 3.0 | 0.00 | 0.00 | 0.07 | 81 | 1010.2 |
| 20260506155404 | 50 | 92 | 2.0 | 3.0 | 0.00 | 0.00 | 0.07 | 81 | 1010.2 |
| 20260506154902 | 50 | 98 | 3.0 | 4.0 | 0.00 | 0.00 | 0.07 | 81 | 1010.3 |
| 20260506154401 | 50 | 151 | 2.0 | 5.0 | 0.00 | 0.00 | 0.07 | 83 | 1010.2 |
| 20260506153903 | 50 | 162 | 4.0 | 5.0 | 0.00 | 0.00 | 0.07 | 83 | 1010.2 |
| 20260506153403 | 50 | 141 | 3.0 | 4.0 | 0.00 | 0.00 | 0.07 | 85 | 1010.2 |
| 20260506152902 | 50 | 150 | 3.0 | 4.0 | 0.00 | 0.00 | 0.07 | 84 | 1010.2 |
| 20260506152401 | 50 | 174 | 4.0 | 6.0 | 0.00 | 0.00 | 0.07 | 84 | 1010.2 |
| 20260506151901 | 50 | 136 | 3.0 | 5.0 | 0.00 | 0.00 | 0.07 | 84 | 1010.1 |
| 20260506151404 | 50 | 161 | 4.0 | 6.0 | 0.00 | 0.00 | 0.07 | 86 | 1010.1 |
| 20260506150901 | 50 | 166 | 4.0 | 5.0 | 0.00 | 0.00 | 0.07 | 86 | 1010.0 |
| 20260506150404 | 50 | 140 | 4.0 | 6.0 | 0.00 | 0.00 | 0.07 | 87 | 1009.9 |
| 20260506145904 | 50 | 143 | 3.0 | 4.0 | 0.00 | 0.00 | 0.07 | 88 | 1009.9 |
| 20260506145402 | 50 | 175 | 3.0 | 4.0 | 0.00 | 0.00 | 0.07 | 89 | 1009.8 |
| 20260506144902 | 50 | 209 | 2.0 | 4.0 | 0.00 | 0.00 | 0.07 | 90 | 1009.9 |
| 20260506144404 | 50 | 176 | 4.0 | 4.0 | 0.00 | 0.00 | 0.07 | 90 | 1009.9 |
| 20260506143902 | 50 | 170 | 4.0 | 4.0 | 0.00 | 0.00 | 0.07 | 90 | 1009.8 |
| 20260506143404 | 50 | 153 | 4.0 | 4.0 | 0.00 | 0.00 | 0.07 | 90 | 1009.9 |
| 20260506142903 | 50 | 146 | 3.0 | 5.0 | 0.00 | 0.00 | 0.07 | 90 | 1009.8 |
| 20260506142404 | 50 | 140 | 3.0 | 6.0 | 0.00 | 0.00 | 0.07 | 89 | 1009.8 |
| 20260506141905 | 50 | 168 | 4.0 | 6.0 | 0.00 | 0.00 | 0.07 | 90 | 1009.7 |
| 20260506141401 | 50 | 119 | 3.0 | 4.0 | 0.00 | 0.00 | 0.07 | 90 | 1009.8 |
| 20260506140904 | 50 | 177 | 4.0 | 5.0 | 0.00 | 0.00 | 0.07 | 90 | 1009.8 |
| 20260506140404 | 50 | 132 | 3.0 | 5.0 | 0.00 | 0.00 | 0.07 | 90 | 1009.8 |
| 20260506135902 | 49 | 183 | 4.0 | 5.0 | 0.00 | 0.00 | 0.07 | 91 | 1009.8 |
| 20260506135404 | 49 | 177 | 4.0 | 5.0 | 0.00 | 0.00 | 0.07 | 91 | 1009.7 |
| 20260506134902 | 49 | 177 | 4.0 | 5.0 | 0.00 | 0.00 | 0.07 | 91 | 1009.7 |
| 20260506134402 | 49 | 178 | 4.0 | 5.0 | 0.00 | 0.00 | 0.07 | 90 | 1009.7 |
| 20260506133902 | 49 | 159 | 3.0 | 4.0 | 0.00 | 0.00 | 0.07 | 91 | 1009.6 |
| 20260506133401 | 49 | 172 | 4.0 | 5.0 | 0.00 | 0.00 | 0.07 | 92 | 1009.7 |
| 20260506132902 | 49 | 88 | 2.0 | 4.0 | 0.00 | 0.00 | 0.07 | 90 | 1009.6 |
| 20260506132404 | 49 | 127 | 3.0 | 4.0 | 0.00 | 0.00 | 0.07 | 91 | 1009.7 |
| 20260506131902 | 49 | 174 | 4.0 | 5.0 | 0.00 | 0.00 | 0.07 | 92 | 1009.6 |
| 20260506131401 | 49 | 161 | 4.0 | 5.0 | 0.00 | 0.00 | 0.07 | 92 | 1009.7 |
| 20260506130904 | 49 | 155 | 3.0 | 4.0 | 0.00 | 0.00 | 0.07 | 92 | 1009.7 |
| 20260506130404 | 49 | 189 | 3.0 | 4.0 | 0.00 | 0.00 | 0.07 | 91 | 1009.6 |
| 20260506125904 | 49 | 194 | 3.0 | 4.0 | 0.00 | 0.00 | 0.07 | 91 | 1009.6 |
| 20260506125402 | 49 | 157 | 3.0 | 4.0 | 0.00 | 0.00 | 0.07 | 91 | 1009.6 |
| 20260506124901 | 49 | 149 | 2.0 | 4.0 | 0.00 | 0.00 | 0.07 | 91 | 1009.6 |
| 20260506124404 | 49 | 157 | 3.0 | 5.0 | 0.00 | 0.00 | 0.07 | 93 | 1009.5 |
| 20260506123902 | 49 | 129 | 2.0 | 4.0 | 0.01 | 0.00 | 0.07 | 92 | 1009.5 |
| 20260506123402 | 49 | 128 | 2.0 | 3.0 | 0.01 | 0.00 | 0.06 | 90 | 1009.5 |
| 20260506122903 | 49 | 136 | 2.0 | 3.0 | 0.02 | 0.00 | 0.06 | 90 | 1009.4 |
| 20260506122402 | 49 | 179 | 4.0 | 5.0 | 0.00 | 0.00 | 0.06 | 91 | 1009.4 |
| 20260506121906 | 49 | 162 | 4.0 | 4.0 | 0.00 | 0.00 | 0.06 | 92 | 1009.4 |
| 20260506121403 | 49 | 186 | 3.0 | 4.0 | 0.00 | 0.00 | 0.06 | 91 | 1009.4 |
| 20260506120902 | 49 | 156 | 2.0 | 3.0 | 0.00 | 0.00 | 0.06 | 90 | 1009.4 |
| 20260506120405 | 49 | 162 | 4.0 | 4.0 | 0.00 | 0.00 | 0.06 | 90 | 1009.4 |
| 20260506115902 | 49 | 178 | 4.0 | 4.0 | 0.00 | 0.00 | 0.06 | 90 | 1009.3 |
| 20260506115401 | 49 | 217 | 2.0 | 3.0 | 0.00 | 0.00 | 0.06 | 90 | 1009.2 |
| 20260506114903 | 49 | 127 | 4.0 | 6.0 | 0.00 | 0.00 | 0.06 | 90 | 1009.2 |
| 20260506114401 | 49 | 152 | 3.0 | 4.0 | 0.00 | 0.00 | 0.06 | 91 | 1009.2 |
| 20260506113904 | 49 | 151 | 3.0 | 4.0 | 0.00 | 0.00 | 0.06 | 92 | 1009.2 |
| 20260506113402 | 49 | 166 | 4.0 | 6.0 | 0.02 | 0.00 | 0.06 | 92 | 1009.2 |
| 20260506112904 | 49 | 183 | 3.0 | 4.0 | 0.01 | 0.00 | 0.06 | 93 | 1009.2 |
| 20260506112401 | 49 | 118 | 4.0 | 6.0 | 0.02 | 0.00 | 0.06 | 92 | 1009.1 |
| 20260506111904 | 49 | 162 | 3.0 | 5.0 | 0.02 | 0.00 | 0.06 | 93 | 1009.0 |
| 20260506111405 | 49 | 173 | 4.0 | 5.0 | 0.04 | 0.00 | 0.06 | 94 | 1009.0 |
| 20260506110901 | 49 | 142 | 4.0 | 4.0 | 0.03 | 0.00 | 0.05 | 93 | 1009.0 |
| 20260506110401 | 49 | 160 | 3.0 | 4.0 | 0.00 | 0.00 | 0.05 | 94 | 1009.0 |
| 20260506105903 | 49 | 169 | 3.0 | 4.0 | 0.00 | 0.00 | 0.05 | 94 | 1008.9 |
| 20260506105405 | 49 | 190 | 3.0 | 4.0 | 0.00 | 0.00 | 0.05 | 93 | 1008.9 |
| 20260506104903 | 49 | 183 | 3.0 | 4.0 | 0.00 | 0.00 | 0.05 | 94 | 1008.9 |
| 20260506104403 | 49 | 172 | 3.0 | 3.0 | 0.00 | 0.00 | 0.05 | 94 | 1008.8 |
| 20260506103903 | 49 | 166 | 3.0 | 4.0 | 0.00 | 0.00 | 0.05 | 95 | 1008.8 |
| 20260506103403 | 49 | 173 | 4.0 | 4.0 | 0.00 | 0.00 | 0.05 | 95 | 1008.9 |
| 20260506102904 | 49 | 158 | 3.0 | 4.0 | 0.00 | 0.00 | 0.05 | 95 | 1008.8 |
| 20260506102403 | 49 | 182 | 4.0 | 4.0 | 0.00 | 0.00 | 0.05 | 96 | 1008.8 |
| 20260506101904 | 48 | 171 | 3.0 | 3.0 | 0.00 | 0.00 | 0.05 | 96 | 1008.7 |
| 20260506101401 | 48 | 188 | 3.0 | 3.0 | 0.01 | 0.00 | 0.05 | 96 | 1008.7 |
| 20260506100902 | 48 | 232 | 2.0 | 3.0 | 0.01 | 0.00 | 0.05 | 96 | 1008.7 |
| 20260506100403 | 48 | 203 | 2.0 | 3.0 | 0.00 | 0.00 | 0.05 | 96 | 1008.7 |
| 20260506095902 | 48 | 307 | 2.0 | 2.0 | 0.00 | 0.00 | 0.05 | 96 | 1008.7 |
| 20260506095404 | 48 | 120 | 2.0 | 3.0 | 0.00 | 0.00 | 0.05 | 96 | 1008.7 |
| 20260506094901 | 48 | 150 | 2.0 | 3.0 | 0.00 | 0.00 | 0.05 | 96 | 1008.7 |
| 20260506094404 | 48 | 176 | 3.0 | 3.0 | 0.00 | 0.00 | 0.05 | 96 | 1008.7 |
| 20260506093904 | 48 | 148 | 3.0 | 4.0 | 0.00 | 0.00 | 0.05 | 96 | 1008.6 |
| 20260506093401 | 48 | 1 | 1.0 | 2.0 | 0.00 | 0.00 | 0.05 | 96 | 1008.6 |
| 20260506092903 | 48 | 190 | 3.0 | 4.0 | 0.00 | 0.00 | 0.05 | 96 | 1008.6 |
| 20260506092402 | 48 | 303 | 2.0 | 3.0 | 0.00 | 0.00 | 0.05 | 96 | 1008.5 |
| 20260506091904 | 48 | 299 | 2.0 | 2.0 | 0.00 | 0.00 | 0.05 | 96 | 1008.5 |
| 20260506091401 | 48 | 169 | 2.0 | 3.0 | 0.00 | 0.00 | 0.05 | 96 | 1008.5 |
| 20260506090902 | 48 | 336 | 1.0 | 1.0 | 0.00 | 0.00 | 0.05 | 96 | 1008.5 |
| 20260506090401 | 47 | 328 | 2.0 | 3.0 | 0.00 | 0.00 | 0.05 | 96 | 1008.5 |
| 20260506085901 | 47 | 52 | 2.0 | 3.0 | 0.00 | 0.00 | 0.05 | 96 | 1008.5 |
| 20260506085402 | 47 | 171 | 2.0 | 4.0 | 0.00 | 0.00 | 0.05 | 96 | 1008.5 |
| 20260506084903 | 47 | 321 | 2.0 | 2.0 | 0.00 | 0.00 | 0.05 | 96 | 1008.4 |
| 20260506084404 | 47 | 127 | 2.0 | 3.0 | 0.01 | 0.00 | 0.05 | 96 | 1008.4 |
| 20260506083903 | 47 | 186 | 3.0 | 3.0 | 0.00 | 0.00 | 0.05 | 96 | 1008.4 |
| 20260506083401 | 47 | 217 | 2.0 | 3.0 | 0.00 | 0.00 | 0.05 | 96 | 1008.4 |
| 20260506082904 | 47 | 178 | 2.0 | 2.0 | 0.00 | 0.00 | 0.05 | 96 | 1008.4 |
| 20260506082402 | 47 | 126 | 2.0 | 3.0 | 0.00 | 0.00 | 0.05 | 96 | 1008.3 |
| 20260506081901 | 47 | 336 | 1.0 | 1.0 | 0.00 | 0.00 | 0.05 | 96 | 1008.3 |
| 20260506081402 | 47 | 335 | 1.0 | 2.0 | 0.00 | 0.00 | 0.05 | 96 | 1008.3 |
| 20260506080901 | 47 | 219 | 2.0 | 3.0 | 0.00 | 0.00 | 0.05 | 96 | 1008.3 |
| 20260506080402 | 47 | 345 | 1.0 | 1.0 | 0.00 | 0.00 | 0.05 | 96 | 1008.2 |
| 20260506073404 | 46 | 337 | 1.0 | 1.0 | 0.01 | 0.00 | 0.04 | 96 | 1008.1 |
| 20260506072902 | 46 | 271 | 2.0 | 3.0 | 0.00 | 0.00 | 0.04 | 96 | 1008.2 |
| 20260506072403 | 46 | 190 | 2.0 | 4.0 | 0.00 | 0.00 | 0.04 | 96 | 1008.2 |
| 20260506071903 | 46 | 164 | 2.0 | 4.0 | 0.00 | 0.00 | 0.04 | 96 | 1008.1 |
| 20260506071402 | 46 | 106 | 4.0 | 5.0 | 0.00 | 0.00 | 0.04 | 95 | 1008.0 |
| 20260506070901 | 46 | 176 | 3.0 | 3.0 | 0.00 | 0.00 | 0.04 | 95 | 1008.0 |
| 20260506070403 | 46 | 145 | 2.0 | 3.0 | 0.00 | 0.00 | 0.04 | 95 | 1007.9 |
| 20260506062401 | 46 | 176 | 3.0 | 4.0 | 0.01 | 0.00 | 0.04 | 95 | 1007.8 |
| 20260506061901 | 46 | 200 | 3.0 | 3.0 | 0.01 | 0.00 | 0.04 | 95 | 1007.7 |
| 20260506061401 | 46 | 97 | 3.0 | 4.0 | 0.02 | 0.00 | 0.04 | 95 | 1007.7 |
| 20260506060901 | 47 | 189 | 3.0 | 4.0 | 0.03 | 0.00 | 0.04 | 95 | 1007.7 |
| 20260506060401 | 47 | 143 | 2.0 | 3.0 | 0.04 | 0.00 | 0.03 | 95 | 1007.7 |
| 20260506051402 | 48 | 288 | 2.0 | 3.0 | 0.00 | 0.00 | 0.03 | 95 | 1007.4 |
| 20260506050902 | 48 | 340 | 1.0 | 1.0 | 0.00 | 0.00 | 0.03 | 95 | 1007.4 |
| 20260506050403 | 48 | 220 | 2.0 | 2.0 | 0.00 | 0.00 | 0.03 | 95 | 1007.4 |
| 20260506044902 | 48 | 213 | 2.0 | 2.0 | 0.00 | 0.00 | 0.03 | 95 | 1007.4 |
| 20260506044402 | 48 | 336 | 1.0 | 1.0 | 0.00 | 0.00 | 0.03 | 95 | 1007.4 |
| 20260506043901 | 48 | 276 | 1.0 | 2.0 | 0.00 | 0.00 | 0.03 | 95 | 1007.4 |
| 20260506043403 | 48 | 288 | 1.0 | 2.0 | 0.00 | 0.00 | 0.03 | 95 | 1007.4 |
| 20260506042901 | 48 | 327 | 1.0 | 1.0 | 0.00 | 0.00 | 0.03 | 95 | 1007.4 |
| 20260506042402 | 48 | 189 | 2.0 | 3.0 | 0.00 | 0.00 | 0.03 | 95 | 1007.3 |
| 20260506041902 | 47 | 336 | 1.0 | 1.0 | 0.00 | 0.00 | 0.03 | 95 | 1007.4 |
| 20260506041403 | 47 | 320 | 1.0 | 2.0 | 0.00 | 0.00 | 0.02 | 95 | 1007.4 |
| 20260506040902 | 47 | 331 | 1.0 | 1.0 | 0.00 | 0.00 | 0.02 | 95 | 1007.4 |
| 20260506040402 | 47 | 329 | 1.0 | 1.0 | 0.00 | 0.00 | 0.02 | 95 | 1007.4 |
| 20260506035902 | 47 | 320 | 1.0 | 1.0 | 0.01 | 0.00 | 0.02 | 95 | 1007.4 |
| 20260506035401 | 47 | 270 | 1.0 | 2.0 | 0.01 | 0.00 | 0.02 | 95 | 1007.4 |
| 20260506034902 | 47 | 327 | 1.0 | 1.0 | 0.01 | 0.00 | 0.02 | 95 | 1007.4 |
| 20260506034401 | 47 | 248 | 1.0 | 2.0 | 0.00 | 0.00 | 0.02 | 95 | 1007.5 |
| 20260506033901 | 47 | 225 | 2.0 | 2.0 | 0.00 | 0.00 | 0.02 | 95 | 1007.5 |
| 20260506033402 | 47 | 277 | 1.0 | 2.0 | 0.00 | 0.00 | 0.02 | 95 | 1007.6 |
| 20260506032902 | 47 | 188 | 3.0 | 3.0 | 0.00 | 0.00 | 0.02 | 95 | 1007.6 |
| 20260506032402 | 47 | 330 | 1.0 | 1.0 | 0.00 | 0.00 | 0.02 | 95 | 1007.6 |
| 20260506031902 | 47 | 178 | 3.0 | 3.0 | 0.00 | 0.00 | 0.02 | 95 | 1007.6 |
| 20260506031404 | 47 | 213 | 2.0 | 3.0 | 0.01 | 0.00 | 0.02 | 95 | 1007.6 |
| 20260506030903 | 47 | 217 | 2.0 | 2.0 | 0.00 | 0.00 | 0.02 | 95 | 1007.7 |
| 20260506030402 | 47 | 323 | 1.0 | 2.0 | 0.00 | 0.00 | 0.02 | 95 | 1007.7 |
| 20260506025903 | 47 | 239 | 2.0 | 3.0 | 0.01 | 0.00 | 0.02 | 95 | 1007.7 |
| 20260506025402 | 47 | 208 | 2.0 | 3.0 | 0.01 | 0.00 | 0.02 | 95 | 1007.7 |
| 20260506024901 | 47 | 205 | 2.0 | 3.0 | 0.01 | 0.00 | 0.02 | 95 | 1007.7 |
| 20260506024402 | 48 | 198 | 2.0 | 3.0 | 0.01 | 0.00 | 0.02 | 95 | 1007.8 |
| 20260506023901 | 48 | 331 | 1.0 | 1.0 | 0.01 | 0.00 | 0.02 | 95 | 1007.8 |
| 20260506023401 | 48 | 5 | 2.0 | 2.0 | 0.02 | 0.00 | 0.02 | 95 | 1007.8 |
| 20260506022902 | 48 | 315 | 1.0 | 1.0 | 0.02 | 0.00 | 0.02 | 95 | 1007.9 |
| 20260506022402 | 48 | 255 | 1.0 | 2.0 | 0.01 | 0.00 | 0.02 | 95 | 1007.9 |
| 20260506021902 | 48 | 328 | 1.0 | 1.0 | 0.00 | 0.00 | 0.01 | 95 | 1008.0 |
| 20260506021404 | 48 | 326 | 1.0 | 1.0 | 0.01 | 0.00 | 0.01 | 95 | 1008.1 |
| 20260506020901 | 48 | 332 | 1.0 | 1.0 | 0.02 | 0.00 | 0.01 | 95 | 1008.1 |
| 20260506020404 | 48 | 20 | 2.0 | 2.0 | 0.01 | 0.00 | 0.01 | 95 | 1008.1 |
| 20260506015902 | 48 | 346 | 1.0 | 1.0 | 0.00 | 0.00 | 0.01 | 95 | 1008.1 |
| 20260506015402 | 48 | 0 | 1.0 | 1.0 | 0.01 | 0.00 | 0.01 | 95 | 1008.2 |
| 20260506014902 | 48 | 156 | 2.0 | 3.0 | 0.00 | 0.00 | 0.01 | 95 | 1008.2 |
| 20260506014401 | 48 | 60 | 1.0 | 2.0 | 0.00 | 0.00 | 0.01 | 95 | 1008.2 |
| 20260506013901 | 48 | 190 | 2.0 | 3.0 | 0.00 | 0.00 | 0.01 | 95 | 1008.3 |
| 20260506013403 | 48 | 173 | 2.0 | 3.0 | 0.00 | 0.00 | 0.01 | 95 | 1008.3 |
| 20260506012901 | 48 | 335 | 1.0 | 2.0 | 0.01 | 0.00 | 0.01 | 95 | 1008.3 |
| 20260506012403 | 48 | 160 | 3.0 | 4.0 | 0.01 | 0.00 | 0.01 | 95 | 1008.3 |
| 20260506011904 | 48 | 289 | 1.0 | 2.0 | 0.01 | 0.00 | 0.01 | 95 | 1008.4 |
| 20260506011402 | 48 | 271 | 2.0 | 3.0 | 0.01 | 0.00 | 0.01 | 95 | 1008.4 |
| 20260506010901 | 48 | 189 | 2.0 | 3.0 | 0.01 | 0.00 | 0.01 | 95 | 1008.4 |
| 20260506010402 | 48 | 320 | 2.0 | 3.0 | 0.01 | 0.00 | 0.01 | 95 | 1008.5 |
| 20260506005902 | 48 | 264 | 1.0 | 2.0 | 0.01 | 0.00 | 0.01 | 95 | 1008.5 |
| 20260506005402 | 48 | 329 | 2.0 | 3.0 | 0.02 | 0.00 | 0.01 | 95 | 1008.6 |
| 20260506004902 | 48 | 301 | 2.0 | 3.0 | 0.00 | 0.00 | 0.00 | 95 | 1008.6 |
| 20260506004402 | 48 | 204 | 2.0 | 3.0 | 0.01 | 0.00 | 0.00 | 95 | 1008.6 |
| 20260506003901 | 48 | 333 | 1.0 | 1.0 | 0.01 | 0.00 | 0.00 | 95 | 1008.6 |
| 20260506003404 | 48 | 184 | 3.0 | 4.0 | 0.00 | 0.00 | 0.00 | 95 | 1008.6 |
| 20260506002903 | 48 | 196 | 3.0 | 3.0 | 0.01 | 0.00 | 0.00 | 95 | 1008.7 |
| 20260506002402 | 48 | 201 | 3.0 | 3.0 | 0.00 | 0.00 | 0.00 | 95 | 1008.7 |
| 20260506001907 | 48 | 202 | 2.0 | 3.0 | 0.00 | 0.00 | 0.00 | 95 | 1008.8 |
| 20260506001403 | 48 | 274 | 1.0 | 2.0 | 0.00 | 0.00 | 0.00 | 95 | 1008.8 |
| 20260506000902 | 49 | 347 | 2.0 | 2.0 | 0.01 | 0.00 | 0.00 | 95 | 1008.8 |
| 20260506000402 | 49 | 203 | 3.0 | 4.0 | 0.01 | 0.00 | 0.00 | 95 | 1008.9 |
| 20260505235903 | 49 | 297 | 2.0 | 2.0 | 0.01 | 0.00 | 0.00 | 95 | 1008.9 |
| 20260505235404 | 49 | 346 | 2.0 | 2.0 | 0.00 | 0.00 | 0.00 | 95 | 1008.9 |
| 20260505234907 | 49 | 328 | 2.0 | 3.0 | 0.00 | 0.00 | 0.00 | 95 | 1009.0 |
| 20260505234402 | 49 | 174 | 3.0 | 5.0 | 0.00 | 0.00 | 0.00 | 95 | 1009.0 |
| 20260505233901 | 49 | 342 | 1.0 | 2.0 | 0.00 | 0.00 | 0.00 | 95 | 1009.1 |
| 20260505233401 | 49 | 189 | 3.0 | 3.0 | 0.00 | 0.00 | 0.00 | 95 | 1009.1 |
| 20260505232901 | 49 | 206 | 2.0 | 3.0 | 0.00 | 0.00 | 0.00 | 95 | 1009.1 |
| 20260505232402 | 49 | 203 | 2.0 | 3.0 | 0.00 | 0.00 | 0.00 | 95 | 1009.1 |
| 20260505231902 | 49 | 216 | 2.0 | 3.0 | 0.00 | 0.00 | 0.00 | 94 | 1009.1 |
| 20260505231401 | 49 | 206 | 2.0 | 3.0 | 0.00 | 0.00 | 0.00 | 94 | 1009.1 |
| 20260505230902 | 49 | 339 | 2.0 | 3.0 | 0.00 | 0.00 | 0.00 | 94 | 1009.2 |
| 20260505230402 | 49 | 215 | 2.0 | 4.0 | 0.00 | 0.00 | 0.00 | 94 | 1009.2 |
| 20260505225901 | 49 | 199 | 2.0 | 3.0 | 0.00 | 0.00 | 0.00 | 94 | 1009.3 |
| 20260505225403 | 49 | 352 | 2.0 | 2.0 | 0.00 | 0.00 | 0.00 | 94 | 1009.3 |
| 20260505224901 | 49 | 326 | 1.0 | 2.0 | 0.00 | 0.00 | 0.00 | 94 | 1009.4 |
| 20260505224402 | 49 | 185 | 2.0 | 3.0 | 0.00 | 0.00 | 0.00 | 94 | 1009.4 |
| 20260505223902 | 49 | 337 | 1.0 | 1.0 | 0.00 | 0.00 | 0.00 | 93 | 1009.4 |
| 20260505223401 | 49 | 312 | 2.0 | 3.0 | 0.00 | 0.00 | 0.00 | 93 | 1009.4 |
| 20260505222902 | 49 | 299 | 2.0 | 3.0 | 0.00 | 0.00 | 0.00 | 93 | 1009.4 |
| 20260505222402 | 49 | 155 | 3.0 | 4.0 | 0.00 | 0.00 | 0.00 | 93 | 1009.4 |